createdAt,value
2022-10-18T00:01:46.519Z,38.96
2022-10-18T00:04:15.201Z,37.48
2022-10-18T00:06:43.787Z,37.04
2022-10-18T00:09:12.464Z,37.36
2022-10-18T00:11:41.355Z,38.59
2022-10-18T00:14:10.003Z,39.46
2022-10-18T00:16:38.717Z,39.13
2022-10-18T00:19:07.309Z,39.23
2022-10-18T00:21:36.592Z,40.19
2022-10-18T00:24:05.644Z,39.61
2022-10-18T00:26:34.368Z,39.30
2022-10-18T00:29:07.652Z,39.66
2022-10-18T00:31:38.379Z,40.11
2022-10-18T00:34:15.586Z,41.36
2022-10-18T00:36:45.034Z,42.90
2022-10-18T00:39:20.779Z,43.36
2022-10-18T00:41:50.499Z,44.29
2022-10-18T00:44:18.918Z,44.53
2022-10-18T00:46:50.734Z,45.63
2022-10-18T00:49:30.059Z,45.78
2022-10-18T00:52:02.346Z,46.81
2022-10-18T00:54:32.786Z,48.21
2022-10-18T00:57:01.551Z,48.99
2022-10-18T00:59:30.604Z,49.51
2022-10-18T01:01:59.260Z,49.51
2022-10-18T01:04:27.909Z,49.47
2022-10-18T01:07:02.938Z,49.70
2022-10-18T01:09:40.331Z,51.27
2022-10-18T01:12:37.418Z,51.17
2022-10-18T01:15:15.021Z,51.27
2022-10-18T01:17:49.615Z,52.83
2022-10-18T01:21:00.410Z,52.77
2022-10-18T01:23:39.096Z,53.91
2022-10-18T01:26:41.011Z,53.62
2022-10-18T01:29:34.694Z,53.23
2022-10-18T01:32:08.968Z,53.93
2022-10-18T01:34:41.446Z,53.72
2022-10-18T01:37:13.358Z,54.60
2022-10-18T01:39:45.788Z,57.38
2022-10-18T01:42:18.611Z,57.88
2022-10-18T01:44:48.491Z,57.89
2022-10-18T01:47:18.375Z,58.37
2022-10-18T01:49:46.861Z,57.88
2022-10-18T01:52:17.571Z,58.22
2022-10-18T01:54:50.157Z,59.54
2022-10-18T01:57:23.900Z,58.71
2022-10-18T02:00:20.692Z,58.62
2022-10-18T02:03:25.918Z,60.13
2022-10-18T02:05:57.275Z,60.42
2022-10-18T02:08:46.243Z,59.77
2022-10-18T02:11:19.726Z,58.90
2022-10-18T02:14:04.330Z,59.58
2022-10-18T02:17:10.051Z,61.79
2022-10-18T02:19:45.200Z,62.52
2022-10-18T02:22:15.748Z,62.19
2022-10-18T02:24:49.901Z,63.25
2022-10-18T02:27:18.976Z,61.66
2022-10-18T02:29:48.270Z,60.77
2022-10-18T02:32:39.369Z,60.96
2022-10-18T02:35:37.019Z,60.23
2022-10-18T02:38:08.740Z,60.91
2022-10-18T02:40:38.034Z,60.72
2022-10-18T02:43:08.490Z,65.02
2022-10-18T02:45:37.269Z,62.97
2022-10-18T02:48:05.994Z,63.65
2022-10-18T02:50:34.627Z,63.91
2022-10-18T02:53:03.206Z,64.38
2022-10-18T02:55:31.689Z,63.94
2022-10-18T02:58:00.323Z,65.07
2022-10-18T03:00:28.866Z,66.09
2022-10-18T03:02:57.430Z,67.40
2022-10-18T03:05:25.965Z,65.58
2022-10-18T03:07:54.476Z,65.99
2022-10-18T03:10:22.968Z,65.54
2022-10-18T03:12:51.460Z,66.13
2022-10-18T03:15:20.068Z,65.51
2022-10-18T03:17:48.573Z,66.36
2022-10-18T03:20:17.171Z,65.47
2022-10-18T03:22:45.796Z,67.50
2022-10-18T03:25:14.446Z,68.01
2022-10-18T03:27:43.028Z,67.43
2022-10-18T03:30:14.594Z,67.45
2022-10-18T03:32:43.229Z,67.51
2022-10-18T03:35:12.064Z,68.07
2022-10-18T03:37:40.572Z,67.91
2022-10-18T03:40:10.121Z,67.73
2022-10-18T03:42:38.476Z,67.15
2022-10-18T03:45:07.206Z,67.44
2022-10-18T03:47:35.773Z,67.97
2022-10-18T03:50:04.345Z,67.81
2022-10-18T03:52:33.143Z,68.93
2022-10-18T03:55:01.927Z,68.67
2022-10-18T03:57:30.372Z,68.52
2022-10-18T03:59:58.868Z,68.80
2022-10-18T04:02:28.649Z,69.31
2022-10-18T04:04:59.855Z,69.73
2022-10-18T04:07:28.454Z,69.08
2022-10-18T04:09:56.951Z,67.59
2022-10-18T04:12:25.414Z,66.64
2022-10-18T04:14:55.557Z,67.70
2022-10-18T04:17:24.231Z,68.67
2022-10-18T04:19:52.735Z,67.85
2022-10-18T04:22:21.354Z,68.13
2022-10-18T04:24:49.899Z,68.63
2022-10-18T04:27:18.079Z,68.83
2022-10-18T04:29:46.679Z,68.43
2022-10-18T04:32:15.193Z,68.96
2022-10-18T04:37:17.051Z,68.93
2022-10-18T04:39:52.592Z,68.39
2022-10-18T04:42:23.060Z,68.86
2022-10-18T04:44:51.872Z,68.77
2022-10-18T04:47:20.246Z,68.65
2022-10-18T04:49:48.848Z,68.63
2022-10-18T04:52:17.357Z,69.21
2022-10-18T04:54:45.840Z,69.38
2022-10-18T04:57:14.488Z,69.66
2022-10-18T04:59:43.030Z,70.10
2022-10-18T05:02:10.938Z,71.30
2022-10-18T05:04:39.482Z,70.10
2022-10-18T05:07:07.982Z,69.94
2022-10-18T05:09:36.416Z,71.10
2022-10-18T05:12:05.038Z,70.95
2022-10-18T05:14:33.479Z,71.64
2022-10-18T05:17:01.922Z,72.17
2022-10-18T05:19:30.465Z,72.35
2022-10-18T05:21:59.080Z,72.32
2022-10-18T05:24:27.858Z,72.63
2022-10-18T05:26:56.505Z,72.74
2022-10-18T05:29:25.054Z,73.98
2022-10-18T05:31:53.634Z,74.96
2022-10-18T05:34:21.678Z,74.67
2022-10-18T05:36:52.984Z,74.04
2022-10-18T05:39:21.605Z,73.56
2022-10-18T05:41:50.306Z,73.10
2022-10-18T05:44:18.913Z,72.92
2022-10-18T05:46:47.405Z,72.92
2022-10-18T05:49:16.745Z,72.35
2022-10-18T05:51:45.282Z,73.16
2022-10-18T05:54:14.520Z,72.65
2022-10-18T05:56:43.434Z,73.20
2022-10-18T05:59:13.365Z,73.33
2022-10-18T06:01:43.358Z,72.97
2022-10-18T06:04:12.132Z,71.73
2022-10-18T06:06:41.526Z,70.91
2022-10-18T06:09:10.256Z,71.11
2022-10-18T06:11:38.919Z,71.06
2022-10-18T06:14:09.301Z,71.85
2022-10-18T06:19:11.836Z,73.06
2022-10-18T06:21:40.734Z,72.12
2022-10-18T06:24:09.251Z,71.64
2022-10-18T06:26:37.738Z,72.36
2022-10-18T06:29:06.284Z,71.20
2022-10-18T06:31:34.910Z,71.69
2022-10-18T06:34:03.617Z,71.12
2022-10-18T06:36:32.325Z,71.90
2022-10-18T06:39:01.355Z,72.44
2022-10-18T06:41:29.831Z,72.37
2022-10-18T06:43:59.898Z,72.59
2022-10-18T06:46:28.540Z,72.25
2022-10-18T06:48:57.697Z,71.88
2022-10-18T06:51:26.376Z,72.17
2022-10-18T06:54:06.276Z,73.23
2022-10-18T06:56:43.119Z,72.99
2022-10-18T06:59:11.701Z,73.51
2022-10-18T07:01:40.274Z,74.26
2022-10-18T07:04:08.944Z,73.79
2022-10-18T07:06:37.390Z,73.44
2022-10-18T07:09:05.744Z,74.25
2022-10-18T07:11:34.315Z,73.85
2022-10-18T07:14:07.318Z,74.27
2022-10-18T07:16:36.327Z,74.92
2022-10-18T07:19:05.074Z,75.41
2022-10-18T07:21:34.015Z,75.70
2022-10-18T07:24:02.222Z,75.75
2022-10-18T07:26:33.166Z,76.60
2022-10-18T07:29:06.757Z,76.44
2022-10-18T07:31:35.710Z,75.79
2022-10-18T07:34:06.776Z,76.35
2022-10-18T07:36:35.921Z,76.35
2022-10-18T07:39:05.132Z,76.34
2022-10-18T07:41:37.569Z,75.92
2022-10-18T07:44:06.264Z,76.69
2022-10-18T07:46:34.751Z,78.07
2022-10-18T07:49:03.310Z,78.72
2022-10-18T07:51:34.048Z,78.98
2022-10-18T07:54:02.541Z,79.60
2022-10-18T07:56:31.185Z,79.95
2022-10-18T07:58:59.701Z,80.58
2022-10-18T08:01:28.230Z,81.11
2022-10-18T08:03:56.332Z,80.70
2022-10-18T08:06:25.360Z,81.39
2022-10-18T08:08:53.987Z,81.66
2022-10-18T08:11:25.260Z,81.90
2022-10-18T08:13:55.109Z,82.13
2022-10-18T08:16:28.895Z,81.60
2022-10-18T08:19:00.113Z,81.30
2022-10-18T08:21:29.140Z,81.75
2022-10-18T08:23:57.706Z,81.02
2022-10-18T08:26:26.222Z,81.21
2022-10-18T08:29:10.370Z,81.15
2022-10-18T08:31:43.695Z,80.53
2022-10-18T08:34:14.841Z,80.04
2022-10-18T08:36:47.495Z,80.97
2022-10-18T08:39:16.006Z,81.68
2022-10-18T08:42:15.373Z,82.18
2022-10-18T08:44:50.383Z,81.11
2022-10-18T08:47:30.566Z,82.18
2022-10-18T08:50:15.745Z,81.52
2022-10-18T08:53:07.257Z,82.13
2022-10-18T08:55:47.233Z,83.67
2022-10-18T08:58:22.036Z,81.25
2022-10-18T09:01:23.088Z,81.36
2022-10-18T09:04:21.969Z,81.37
2022-10-18T09:07:15.516Z,81.82
2022-10-18T09:10:04.915Z,82.36
2022-10-18T09:12:59.628Z,82.52
2022-10-18T09:15:49.282Z,81.88
2022-10-18T09:18:38.712Z,82.08
2022-10-18T09:21:22.348Z,82.76
2022-10-18T09:24:05.188Z,82.68
2022-10-18T09:26:44.972Z,82.54
2022-10-18T09:29:25.647Z,83.43
2022-10-18T09:32:12.457Z,84.10
2022-10-18T09:35:15.900Z,84.27
2022-10-18T09:37:45.734Z,83.76
2022-10-18T09:40:20.918Z,84.33
2022-10-18T09:42:59.882Z,83.28
2022-10-18T09:45:36.140Z,83.64
2022-10-18T09:48:30.936Z,83.79
2022-10-18T09:51:13.489Z,83.56
2022-10-18T09:54:29.488Z,83.59
2022-10-18T09:57:25.096Z,83.74
2022-10-18T09:59:53.976Z,83.38
2022-10-18T10:02:24.909Z,83.54
2022-10-18T10:04:55.730Z,82.77
2022-10-18T10:07:42.643Z,82.31
2022-10-18T10:10:32.917Z,82.23
2022-10-18T10:13:08.653Z,82.87
2022-10-18T10:15:41.783Z,82.89
2022-10-18T10:18:44.791Z,83.52
2022-10-18T10:21:18.104Z,84.05
2022-10-18T10:23:59.304Z,83.49
2022-10-18T10:26:35.243Z,83.87
2022-10-18T10:29:04.480Z,84.40
2022-10-18T10:31:35.823Z,84.63
2022-10-18T10:34:16.267Z,84.32
2022-10-18T10:36:51.727Z,84.19
2022-10-18T10:39:22.763Z,84.43
2022-10-18T10:41:57.756Z,84.85
2022-10-18T10:44:30.792Z,84.03
2022-10-18T10:47:00.361Z,84.17
2022-10-18T10:49:47.184Z,83.39
2022-10-18T10:52:27.650Z,83.28
2022-10-18T10:55:30.525Z,81.30
2022-10-18T10:57:56.748Z,79.60
2022-10-18T11:00:44.965Z,79.19
2022-10-18T11:03:29.593Z,78.02
2022-10-18T11:06:01.799Z,77.65
2022-10-18T11:08:37.365Z,76.49
2022-10-18T11:11:32.438Z,74.84
2022-10-18T11:14:30.249Z,75.38
2022-10-18T11:17:04.238Z,75.80
2022-10-18T11:20:03.166Z,76.16
2022-10-18T11:22:37.740Z,75.14
2022-10-18T11:25:07.281Z,75.36
2022-10-18T11:27:46.786Z,76.08
2022-10-18T11:30:39.111Z,75.66
2022-10-18T11:33:56.338Z,75.61
2022-10-18T11:36:34.047Z,75.15
2022-10-18T11:39:19.815Z,74.38
2022-10-18T11:41:59.980Z,74.24
2022-10-18T11:44:45.399Z,73.49
2022-10-18T11:47:35.816Z,71.39
2022-10-18T11:50:09.517Z,70.72
2022-10-18T11:52:52.084Z,70.32
2022-10-18T11:55:45.446Z,67.06
2022-10-18T11:58:38.478Z,67.30
2022-10-18T12:01:17.169Z,68.09
2022-10-18T12:03:51.571Z,68.77
2022-10-18T12:06:23.882Z,66.29
2022-10-18T12:09:01.146Z,65.09
2022-10-18T12:11:46.897Z,65.47
2022-10-18T12:14:29.421Z,64.49
2022-10-18T12:17:35.846Z,65.00
2022-10-18T12:19:52.550Z,63.94
2022-10-18T12:23:04.170Z,63.50
2022-10-18T12:25:38.436Z,66.44
2022-10-18T12:28:25.979Z,63.88
2022-10-18T12:30:59.750Z,64.71
2022-10-18T12:33:32.472Z,62.88
2022-10-18T12:36:12.490Z,63.62
2022-10-18T12:38:44.154Z,67.19
2022-10-18T12:41:23.413Z,64.68
2022-10-18T12:44:00.563Z,65.53
2022-10-18T12:46:55.922Z,64.95
2022-10-18T12:49:39.145Z,63.16
2022-10-18T12:52:24.669Z,64.48
2022-10-18T12:55:15.299Z,64.02
2022-10-18T12:57:55.453Z,64.49
2022-10-18T13:00:32.909Z,65.50
2022-10-18T13:03:19.481Z,63.98
2022-10-18T13:05:54.697Z,63.15
2022-10-18T13:08:32.952Z,63.01
2022-10-18T13:11:10.719Z,64.71
2022-10-18T13:13:55.796Z,66.01
2022-10-18T13:16:24.286Z,65.37
2022-10-18T13:19:01.455Z,67.16
2022-10-18T13:21:36.006Z,65.64
2022-10-18T13:24:21.200Z,65.01
2022-10-18T13:26:59.284Z,64.83
2022-10-18T13:30:17.931Z,63.37
2022-10-18T13:33:30.187Z,63.54
2022-10-18T13:36:05.385Z,65.63
2022-10-18T13:38:36.599Z,63.41
2022-10-18T13:41:18.615Z,62.61
2022-10-18T13:44:12.363Z,64.39
2022-10-18T13:46:40.878Z,63.90
2022-10-18T13:49:18.704Z,64.26
2022-10-18T13:52:29.931Z,64.94
2022-10-18T13:55:28.896Z,65.33
2022-10-18T13:58:15.035Z,65.24
2022-10-18T14:00:56.482Z,65.85
2022-10-18T14:03:58.338Z,65.77
2022-10-18T14:06:39.680Z,63.07
2022-10-18T14:09:32.805Z,63.97
2022-10-18T14:12:23.185Z,63.00
2022-10-18T14:15:14.408Z,62.88
2022-10-18T14:18:00.433Z,62.84
2022-10-18T14:20:55.348Z,62.57
2022-10-18T14:23:45.932Z,63.25
2022-10-18T14:26:21.978Z,61.75
2022-10-18T14:29:17.529Z,62.56
2022-10-18T14:31:55.685Z,65.02
2022-10-18T14:34:24.191Z,65.15
2022-10-18T14:36:53.490Z,65.95
2022-10-18T14:39:31.330Z,67.34
2022-10-18T14:42:00.110Z,67.21
2022-10-18T14:44:30.488Z,67.34
2022-10-18T14:47:23.061Z,64.25
2022-10-18T14:49:55.590Z,62.79
2022-10-18T14:52:32.882Z,63.55
2022-10-18T14:55:04.172Z,64.87
2022-10-18T14:57:37.013Z,62.47
2022-10-18T15:00:26.465Z,61.48
2022-10-18T15:02:57.964Z,61.28
2022-10-18T15:05:28.203Z,60.63
2022-10-18T15:07:58.195Z,60.38
2022-10-18T15:10:33.487Z,62.60
2022-10-18T15:13:12.798Z,60.49
2022-10-18T15:15:42.527Z,61.97
2022-10-18T15:18:21.797Z,59.92
2022-10-18T15:21:20.925Z,57.39
2022-10-18T15:23:50.654Z,57.86
2022-10-18T15:26:27.779Z,58.23
2022-10-18T15:29:01.461Z,58.16
2022-10-18T15:31:45.768Z,56.67
2022-10-18T15:34:20.009Z,57.01
2022-10-18T15:36:50.187Z,56.43
2022-10-18T15:39:24.552Z,57.72
2022-10-18T15:42:03.944Z,57.32
2022-10-18T15:44:47.301Z,55.40
2022-10-18T15:47:21.561Z,55.22
2022-10-18T15:49:56.686Z,57.40
2022-10-18T15:52:39.514Z,55.27
2022-10-18T15:55:31.000Z,54.40
2022-10-18T15:58:08.189Z,55.62
2022-10-18T16:00:37.121Z,55.44
2022-10-18T16:03:05.632Z,55.38
2022-10-18T16:05:34.165Z,55.48
2022-10-18T16:08:02.655Z,55.21
2022-10-18T16:10:31.100Z,54.87
2022-10-18T16:12:59.651Z,55.89
2022-10-18T16:15:28.176Z,54.53
2022-10-18T16:17:56.637Z,55.06
2022-10-18T16:20:26.437Z,55.34
2022-10-18T16:22:55.395Z,56.19
2022-10-18T16:25:23.947Z,55.84
2022-10-18T16:27:52.522Z,56.48
2022-10-18T16:30:22.626Z,55.04
2022-10-18T16:32:51.086Z,56.29
2022-10-18T16:35:19.247Z,53.77
2022-10-18T16:37:47.962Z,54.24
2022-10-18T16:40:25.639Z,53.79
2022-10-18T16:42:54.180Z,53.26
2022-10-18T16:45:22.662Z,51.69
2022-10-18T16:47:51.152Z,53.10
2022-10-18T16:50:23.075Z,51.36
2022-10-18T16:52:51.597Z,50.91
2022-10-18T16:55:26.155Z,50.74
2022-10-18T16:57:54.675Z,50.00
2022-10-18T17:00:24.617Z,50.72
2022-10-18T17:02:53.240Z,51.50
2022-10-18T17:05:21.778Z,51.53
2022-10-18T17:07:50.832Z,50.31
2022-10-18T17:10:22.698Z,51.08
2022-10-18T17:12:51.554Z,51.63
2022-10-18T17:15:20.225Z,49.88
2022-10-18T17:17:51.241Z,50.90
2022-10-18T17:20:27.373Z,51.09
2022-10-18T17:22:56.527Z,48.93
2022-10-18T17:25:26.905Z,49.40
2022-10-18T17:27:55.558Z,50.00
2022-10-18T17:30:24.043Z,48.05
2022-10-18T17:32:53.872Z,47.98
2022-10-18T17:35:24.012Z,47.72
2022-10-18T17:37:56.396Z,46.80
2022-10-18T17:40:24.800Z,46.02
2022-10-18T17:42:53.806Z,45.63
2022-10-18T17:45:22.701Z,45.87
2022-10-18T17:47:51.200Z,45.77
2022-10-18T17:50:19.874Z,46.51
2022-10-18T17:52:49.347Z,45.16
2022-10-18T17:55:17.369Z,45.92
2022-10-18T17:57:45.916Z,45.50
2022-10-18T18:00:15.266Z,45.24
2022-10-18T18:02:44.085Z,44.75
2022-10-18T18:05:13.867Z,44.27
2022-10-18T18:07:42.347Z,43.08
2022-10-18T18:10:10.955Z,42.82
2022-10-18T18:12:39.468Z,42.79
2022-10-18T18:15:08.126Z,43.63
2022-10-18T18:17:56.013Z,40.99
2022-10-18T18:20:25.720Z,39.67
2022-10-18T18:22:54.956Z,39.86
2022-10-18T18:25:23.606Z,38.94
2022-10-18T18:27:52.066Z,37.99
2022-10-18T18:30:23.054Z,37.67
2022-10-18T18:32:51.604Z,39.08
2022-10-18T18:35:20.149Z,37.94
2022-10-18T18:37:52.256Z,36.77
2022-10-18T18:40:20.807Z,37.46
2022-10-18T18:43:07.286Z,36.17
2022-10-18T18:45:37.857Z,37.13
2022-10-18T18:48:06.597Z,36.93
2022-10-18T18:50:38.541Z,37.45
2022-10-18T18:53:06.982Z,36.55
2022-10-18T18:55:35.808Z,35.19
2022-10-18T18:58:04.372Z,36.16
2022-10-18T19:00:32.872Z,36.32
2022-10-18T19:03:01.330Z,36.01
2022-10-18T19:05:30.507Z,35.10
2022-10-18T19:08:00.459Z,34.19
2022-10-18T19:10:29.482Z,33.37
2022-10-18T19:12:57.625Z,33.70
2022-10-18T19:15:26.274Z,34.61
2022-10-18T19:17:56.284Z,33.19
2022-10-18T19:20:24.795Z,32.92
2022-10-18T19:22:53.509Z,32.91
2022-10-18T19:25:24.709Z,32.49
2022-10-18T19:27:55.447Z,32.73
2022-10-18T19:30:24.106Z,31.52
2022-10-18T19:33:01.178Z,31.33
2022-10-18T19:35:31.690Z,31.83
2022-10-18T19:38:00.289Z,30.92
2022-10-18T19:40:28.825Z,31.54
2022-10-18T19:42:57.285Z,30.43
2022-10-18T19:45:25.836Z,29.46
2022-10-18T19:47:54.451Z,30.56
2022-10-18T19:50:23.022Z,29.89
2022-10-18T19:52:51.592Z,30.32
2022-10-18T19:55:20.283Z,31.40
2022-10-18T19:57:48.734Z,29.54
2022-10-18T20:00:19.463Z,30.48
2022-10-18T20:02:48.200Z,28.49
2022-10-18T20:05:16.715Z,29.57
2022-10-18T20:07:46.828Z,28.62
2022-10-18T20:10:15.436Z,26.98
2022-10-18T20:12:43.944Z,27.83
2022-10-18T20:15:12.992Z,27.50
2022-10-18T20:17:41.561Z,27.16
2022-10-18T20:20:10.672Z,28.32
2022-10-18T20:22:39.224Z,27.37
2022-10-18T20:25:07.877Z,27.78
2022-10-18T20:27:36.592Z,27.99
2022-10-18T20:30:08.976Z,27.19
2022-10-18T20:32:39.840Z,26.72
2022-10-18T20:35:08.662Z,27.16
2022-10-18T20:37:37.547Z,26.86
2022-10-18T20:40:05.952Z,26.32
2022-10-18T20:42:34.429Z,27.50
2022-10-18T20:47:32.474Z,26.64
2022-10-18T20:50:01.006Z,26.87
2022-10-18T20:52:29.675Z,26.25
2022-10-18T20:54:58.148Z,26.16
2022-10-18T20:57:26.707Z,26.19
2022-10-18T20:59:55.184Z,25.69
2022-10-18T21:02:23.731Z,25.03
2022-10-18T21:04:52.263Z,24.95
2022-10-18T21:07:20.715Z,25.39
2022-10-18T21:09:49.259Z,25.38
2022-10-18T21:12:17.806Z,25.79
2022-10-18T21:14:46.290Z,26.38
2022-10-18T21:17:14.765Z,28.08
2022-10-18T21:19:43.331Z,28.23
2022-10-18T21:22:12.254Z,26.07
2022-10-18T21:24:40.679Z,26.82
2022-10-18T21:27:09.229Z,26.33
2022-10-18T21:29:37.737Z,26.27
2022-10-18T21:32:06.439Z,25.86
2022-10-18T21:34:34.814Z,25.64
2022-10-18T21:37:03.277Z,27.19
2022-10-18T21:39:32.044Z,26.19
2022-10-18T21:42:00.652Z,26.82
2022-10-18T21:44:28.767Z,27.75
2022-10-18T21:46:57.593Z,27.43
2022-10-18T21:49:27.633Z,26.81
2022-10-18T21:51:56.073Z,27.10
2022-10-18T21:54:24.515Z,26.65
2022-10-18T21:56:53.160Z,26.47
2022-10-18T21:59:21.733Z,27.63
2022-10-18T22:01:50.346Z,27.51
2022-10-18T22:04:24.692Z,27.02
2022-10-18T22:06:53.908Z,27.80
2022-10-18T22:09:23.356Z,27.38
2022-10-18T22:11:54.460Z,28.02
2022-10-18T22:14:23.978Z,27.40
2022-10-18T22:16:53.165Z,28.02
2022-10-18T22:19:21.534Z,27.71
2022-10-18T22:21:50.747Z,27.77
2022-10-18T22:24:19.196Z,27.88
2022-10-18T22:26:47.757Z,28.74
2022-10-18T22:29:22.105Z,29.06
2022-10-18T22:31:53.576Z,28.04
2022-10-18T22:34:27.249Z,28.03
2022-10-18T22:36:57.301Z,27.90
2022-10-18T22:39:25.941Z,28.45
2022-10-18T22:41:57.566Z,28.75
2022-10-18T22:44:26.670Z,28.33
2022-10-18T22:46:54.869Z,28.89
2022-10-18T22:49:23.458Z,27.36
2022-10-18T22:51:51.630Z,28.01
2022-10-18T22:54:20.201Z,27.49
2022-10-18T22:56:48.700Z,28.49
2022-10-18T22:59:17.310Z,27.82
2022-10-18T23:01:45.486Z,29.93
2022-10-18T23:04:14.096Z,29.67
2022-10-18T23:06:42.672Z,28.95
2022-10-18T23:09:12.852Z,29.92
2022-10-18T23:11:41.354Z,31.27
2022-10-18T23:14:09.922Z,30.58
2022-10-18T23:16:37.883Z,30.76
2022-10-18T23:19:06.245Z,30.46
2022-10-18T23:21:36.468Z,32.07
2022-10-18T23:24:04.981Z,33.39
2022-10-18T23:26:33.625Z,30.93
2022-10-18T23:29:02.288Z,33.89
2022-10-18T23:31:33.934Z,33.84
2022-10-18T23:34:05.579Z,33.32
2022-10-18T23:36:35.289Z,34.20
2022-10-18T23:39:05.088Z,34.35
2022-10-18T23:41:34.218Z,34.51
2022-10-18T23:44:03.688Z,34.18
2022-10-18T23:46:32.222Z,35.92
2022-10-18T23:49:00.749Z,35.11
2022-10-18T23:51:29.279Z,35.61
2022-10-18T23:53:57.797Z,35.08
2022-10-18T23:56:26.713Z,35.39
2022-10-18T23:58:55.235Z,36.31
